Time;durP1;ratioP1;P1;durP2;ratioP2;P2;SDS_P1;SDS_P2;PMS_P1;PMS_P2;Temp;Humidity;BMP_temperature;BMP_pressure;BME280_temperature;BME280_humidity;BME280_pressure;Samples;Min_cycle;Max_cycle;Signal;HPM_P1;HPM_P2
2023/07/28 00:01:34;;;;;;;8.48;5.10;;;18.80;99.90;;;;;;5096923;28;20028;-77
2023/07/28 00:04:01;;;;;;;8.30;4.78;;;18.80;99.90;;;;;;5095716;28;20020;-77
2023/07/28 00:06:26;;;;;;;8.10;4.70;;;18.80;99.90;;;;;;5095580;28;20123;-77
2023/07/28 00:08:52;;;;;;;7.32;4.38;;;18.80;99.90;;;;;;5096607;28;20028;-77
2023/07/28 00:11:17;;;;;;;7.43;4.20;;;18.80;99.90;;;;;;5096576;28;20391;-76
2023/07/28 00:13:43;;;;;;;8.02;4.75;;;18.80;99.90;;;;;;5095504;28;20040;-77
2023/07/28 00:16:09;;;;;;;7.93;3.95;;;18.80;99.90;;;;;;5095463;28;20037;-77
2023/07/28 00:18:35;;;;;;;7.13;4.38;;;18.80;99.90;;;;;;5095422;28;20028;-77
2023/07/28 00:21:01;;;;;;;9.18;4.60;;;18.80;99.90;;;;;;5095401;28;20017;-77
2023/07/28 00:23:28;;;;;;;8.10;4.20;;;18.80;99.90;;;;;;5095319;28;20031;-77
2023/07/28 00:25:53;;;;;;;9.98;4.30;;;18.80;99.90;;;;;;5096312;28;20077;-77
2023/07/28 00:28:19;;;;;;;8.68;4.55;;;18.80;99.90;;;;;;5096242;28;20040;-77
2023/07/28 00:30:49;;;;;;;7.25;4.25;;;18.80;99.90;;;;;;5096240;28;20036;-77
2023/07/28 00:33:15;;;;;;;8.63;4.78;;;18.80;99.90;;;;;;5096164;28;20021;-77
2023/07/28 00:35:41;;;;;;;8.48;4.85;;;18.70;99.90;;;;;;5095990;28;20051;-77
2023/07/28 00:38:06;;;;;;;8.02;4.47;;;18.80;99.90;;;;;;5078386;28;20028;-77
2023/07/28 00:40:32;;;;;;;8.05;4.55;;;18.80;99.90;;;;;;5095159;28;20021;-77
2023/07/28 00:42:58;;;;;;;9.32;4.80;;;18.80;99.90;;;;;;5094996;28;20029;-76
2023/07/28 00:45:24;;;;;;;7.10;4.05;;;18.80;99.90;;;;;;5094932;28;20028;-77
2023/07/28 00:47:49;;;;;;;8.40;4.40;;;18.80;99.90;;;;;;5095931;28;20024;-77
2023/07/28 00:50:15;;;;;;;7.43;4.28;;;18.80;99.90;;;;;;5078146;28;20092;-77
2023/07/28 00:52:42;;;;;;;8.30;4.30;;;18.80;99.90;;;;;;5078352;28;20028;-77
2023/07/28 00:55:07;;;;;;;7.80;4.22;;;18.80;99.90;;;;;;5094814;28;20099;-77
2023/07/28 00:57:34;;;;;;;6.85;4.35;;;18.80;99.90;;;;;;5094712;28;20028;-78
2023/07/28 01:00:00;;;;;;;9.48;4.80;;;18.80;99.90;;;;;;5077618;28;20492;-77
2023/07/28 01:02:26;;;;;;;8.20;4.45;;;18.80;99.90;;;;;;5095788;28;20050;-77
2023/07/28 01:04:52;;;;;;;8.07;4.35;;;18.70;99.90;;;;;;5077680;28;20017;-77
2023/07/28 01:07:35;;;;;;;7.97;4.85;;;18.80;99.90;;;;;;5094599;28;20028;-77
2023/07/28 01:10:26;;;;;;;8.35;4.55;;;18.90;99.90;;;;;;5095567;28;20501;-77
2023/07/28 01:12:51;;;;;;;10.15;4.75;;;18.90;99.90;;;;;;5094476;28;20092;-76
2023/07/28 01:15:17;;;;;;;10.13;5.05;;;18.80;99.90;;;;;;5095415;28;20036;-77
2023/07/28 01:17:43;;;;;;;9.75;4.95;;;18.80;99.90;;;;;;5095319;28;20032;-77
2023/07/28 01:20:09;;;;;;;9.25;4.88;;;18.80;99.90;;;;;;5095387;28;20032;-77
2023/07/28 01:23:13;;;;;;;8.20;4.80;;;18.90;99.90;;;;;;5094351;28;20032;-77
2023/07/28 01:25:49;;;;;;;8.07;4.43;;;18.90;99.90;;;;;;5094260;28;20104;-77
2023/07/28 01:28:19;;;;;;;8.77;4.78;;;18.80;99.90;;;;;;5095163;28;20048;-77
2023/07/28 01:30:45;;;;;;;8.88;4.78;;;18.90;99.90;;;;;;5095119;28;20052;-77
2023/07/28 01:33:11;;;;;;;8.57;4.65;;;18.90;99.90;;;;;;5095069;28;20020;-77
2023/07/28 01:35:38;;;;;;;10.20;5.63;;;18.90;99.90;;;;;;5093944;28;20029;-76
2023/07/28 01:38:04;;;;;;;10.57;4.70;;;18.80;99.90;;;;;;5094929;28;20016;-77
2023/07/28 01:40:30;;;;;;;9.63;4.82;;;18.90;99.90;;;;;;5094144;28;20395;-77
2023/07/28 01:42:55;;;;;;;9.30;4.95;;;18.90;99.90;;;;;;5093985;28;20020;-77
2023/07/28 01:45:21;;;;;;;11.13;5.43;;;18.90;99.90;;;;;;5093908;28;20021;-77
2023/07/28 01:47:47;;;;;;;9.93;5.32;;;18.90;99.90;;;;;;5094754;28;20032;-77
2023/07/28 01:50:12;;;;;;;9.13;4.90;;;18.90;99.90;;;;;;5094753;28;20036;-77
2023/07/28 01:52:38;;;;;;;9.07;5.38;;;18.90;99.90;;;;;;5094718;28;20036;-77
2023/07/28 01:55:04;;;;;;;9.77;5.10;;;18.90;99.90;;;;;;5076942;28;20383;-77
2023/07/28 01:57:33;;;;;;;10.40;5.65;;;18.90;99.90;;;;;;5076737;28;20029;-77
2023/07/28 01:59:59;;;;;;;11.30;5.57;;;18.90;99.90;;;;;;5094642;28;20436;-77
2023/07/28 02:02:24;;;;;;;11.02;5.40;;;18.80;99.90;;;;;;5093517;28;20103;-76
2023/07/28 02:04:50;;;;;;;10.18;5.50;;;18.90;99.90;;;;;;5094181;28;20024;-77
2023/07/28 02:07:16;;;;;;;9.23;5.40;;;18.90;99.90;;;;;;5094611;28;20063;-76
2023/07/28 02:09:42;;;;;;;11.00;5.53;;;18.90;99.90;;;;;;5094374;28;20487;-77
2023/07/28 02:12:07;;;;;;;11.57;6.45;;;18.90;99.90;;;;;;5092775;28;20038;-77
2023/07/28 02:14:33;;;;;;;9.95;5.55;;;19.00;99.90;;;;;;5094226;28;20100;-77
2023/07/28 02:16:59;;;;;;;14.23;5.93;;;19.00;99.90;;;;;;5076524;28;20058;-77
2023/07/28 02:19:25;;;;;;;10.35;5.88;;;19.00;99.90;;;;;;5094128;28;20024;-77
2023/07/28 02:21:50;;;;;;;11.50;5.95;;;19.00;99.90;;;;;;5076365;28;20020;-77
2023/07/28 02:24:16;;;;;;;10.73;5.80;;;19.00;99.90;;;;;;5093248;28;20024;-77
2023/07/28 02:26:42;;;;;;;9.65;5.57;;;19.10;99.90;;;;;;5094025;28;20029;-76
2023/07/28 02:29:07;;;;;;;10.35;5.35;;;19.00;99.90;;;;;;5093163;28;20036;-77
2023/07/28 02:31:33;;;;;;;11.07;6.30;;;18.90;99.90;;;;;;5092981;28;20108;-77
2023/07/28 02:33:59;;;;;;;10.85;6.03;;;18.90;99.90;;;;;;5092851;28;20063;-77
2023/07/28 02:36:24;;;;;;;11.23;6.20;;;18.90;99.90;;;;;;5093914;28;20035;-77
2023/07/28 02:38:50;;;;;;;12.30;6.10;;;18.90;99.90;;;;;;5076195;28;20044;-77
2023/07/28 02:41:15;;;;;;;12.88;6.50;;;18.90;99.90;;;;;;5092733;28;20100;-77
2023/07/28 02:43:41;;;;;;;11.63;6.10;;;18.90;99.90;;;;;;5092887;28;20020;-77
2023/07/28 02:46:07;;;;;;;11.93;6.22;;;18.90;99.90;;;;;;5092825;28;20037;-77
2023/07/28 02:48:32;;;;;;;11.35;5.50;;;18.90;99.90;;;;;;5092778;28;20029;-77
2023/07/28 02:50:58;;;;;;;10.80;5.68;;;18.80;99.90;;;;;;5092722;28;20058;-77
2023/07/28 02:53:24;;;;;;;13.82;6.20;;;18.80;99.90;;;;;;5092738;28;20052;-77
2023/07/28 02:55:49;;;;;;;11.32;5.90;;;18.80;99.90;;;;;;5093457;28;20033;-77
2023/07/28 02:58:15;;;;;;;12.60;5.65;;;18.80;99.90;;;;;;5092625;28;20028;-78
2023/07/28 03:00:43;;;;;;;13.55;5.85;;;18.80;99.90;;;;;;5092456;28;20024;-77
2023/07/28 03:03:10;;;;;;;11.25;5.70;;;18.90;99.90;;;;;;5093475;28;20028;-77
2023/07/28 03:05:37;;;;;;;11.32;5.88;;;18.90;99.90;;;;;;5092166;28;20076;-77
2023/07/28 03:08:03;;;;;;;10.95;5.28;;;18.90;99.90;;;;;;5092436;28;20020;-77
2023/07/28 03:10:29;;;;;;;11.13;5.78;;;18.90;99.90;;;;;;5075894;28;20066;-77
2023/07/28 03:12:55;;;;;;;11.68;6.22;;;18.90;99.90;;;;;;5092464;28;20024;-77
2023/07/28 03:15:22;;;;;;;13.13;6.43;;;18.90;99.90;;;;;;5093334;28;20016;-77
2023/07/28 03:17:48;;;;;;;12.68;5.60;;;18.90;99.90;;;;;;5093269;28;20024;-77
2023/07/28 03:20:14;;;;;;;12.10;5.93;;;18.90;99.90;;;;;;5092281;28;20391;-76
2023/07/28 03:22:39;;;;;;;11.02;5.55;;;18.80;99.90;;;;;;5093252;28;20025;-77
2023/07/28 03:25:05;;;;;;;13.55;6.13;;;18.80;99.90;;;;;;5092249;28;20028;-77
2023/07/28 03:27:31;;;;;;;15.18;6.72;;;18.80;99.90;;;;;;5092288;28;20027;-77
2023/07/28 03:29:56;;;;;;;14.82;6.40;;;18.80;99.90;;;;;;5092230;28;20027;-77
2023/07/28 03:32:22;;;;;;;10.98;5.63;;;18.90;99.90;;;;;;5093146;28;20479;-77
2023/07/28 03:34:48;;;;;;;13.85;6.32;;;18.80;99.90;;;;;;5092092;28;20032;-77
2023/07/28 03:37:13;;;;;;;12.80;6.60;;;18.80;99.90;;;;;;5075387;28;20041;-77
2023/07/28 03:39:39;;;;;;;13.95;6.50;;;18.80;99.90;;;;;;5075328;28;20100;-77
2023/07/28 03:42:04;;;;;;;17.33;7.00;;;18.80;99.90;;;;;;5092006;28;20031;-77
2023/07/28 03:44:30;;;;;;;13.98;6.47;;;18.80;99.90;;;;;;5091978;28;20028;-77
2023/07/28 03:46:56;;;;;;;15.18;6.80;;;18.80;99.90;;;;;;5092003;28;20028;-77
2023/07/28 03:49:22;;;;;;;16.23;6.30;;;18.80;99.90;;;;;;5075235;28;20487;-77
2023/07/28 03:51:47;;;;;;;16.55;6.55;;;18.80;99.90;;;;;;5092254;28;20025;-77
2023/07/28 03:54:13;;;;;;;16.33;6.75;;;18.80;99.90;;;;;;5075260;28;20058;-77
2023/07/28 03:56:38;;;;;;;17.77;7.63;;;18.80;99.90;;;;;;5091867;28;20033;-77
2023/07/28 03:59:05;;;;;;;17.83;7.25;;;18.80;99.90;;;;;;5091869;28;20028;-77
2023/07/28 04:01:31;;;;;;;15.23;6.28;;;18.80;99.90;;;;;;5091988;28;20398;-77
2023/07/28 04:03:57;;;;;;;18.92;7.80;;;18.80;99.90;;;;;;5091944;28;20032;-77
2023/07/28 04:06:43;;;;;;;17.25;7.57;;;18.80;99.90;;;;;;5091630;28;20049;-77
2023/07/28 04:09:09;;;;;;;17.75;7.70;;;18.80;99.90;;;;;;5092875;28;20080;-77
2023/07/28 04:11:34;;;;;;;17.73;7.82;;;18.80;99.90;;;;;;5091926;28;20029;-77
2023/07/28 04:14:00;;;;;;;19.83;7.75;;;18.70;99.90;;;;;;5091734;28;20042;-77
2023/07/28 04:16:26;;;;;;;16.98;7.63;;;18.70;99.90;;;;;;5091812;28;20036;-77
2023/07/28 04:18:51;;;;;;;20.85;8.43;;;18.80;99.90;;;;;;5091727;28;20091;-77
2023/07/28 04:21:17;;;;;;;19.48;7.97;;;18.90;99.90;;;;;;5092686;28;20047;-77
2023/07/28 04:23:43;;;;;;;20.05;8.18;;;18.90;99.90;;;;;;5091641;28;20026;-77
2023/07/28 04:26:09;;;;;;;20.23;7.70;;;18.80;99.90;;;;;;5091659;28;20036;-77
2023/07/28 04:28:34;;;;;;;24.90;8.90;;;18.80;99.90;;;;;;5091614;28;20036;-77
2023/07/28 04:31:00;;;;;;;19.13;8.98;;;18.80;99.90;;;;;;5091680;28;20025;-77
2023/07/28 04:33:26;;;;;;;19.08;7.45;;;18.80;99.90;;;;;;5074766;28;20564;-77
2023/07/28 04:35:51;;;;;;;19.30;8.15;;;18.80;99.90;;;;;;5093899;28;20088;-77
2023/07/28 04:38:18;;;;;;;19.90;8.63;;;18.80;99.90;;;;;;5095266;28;20028;-78
2023/07/28 04:40:44;;;;;;;25.15;9.40;;;18.80;99.90;;;;;;5095219;28;20017;-78
2023/07/28 04:43:10;;;;;;;17.33;8.10;;;18.80;99.90;;;;;;5095091;28;20035;-77
2023/07/28 04:45:36;;;;;;;25.92;8.57;;;18.80;99.90;;;;;;5096015;28;20028;-77
2023/07/28 04:48:01;;;;;;;24.45;9.07;;;18.80;99.90;;;;;;5095989;28;20088;-78
2023/07/28 04:50:28;;;;;;;21.05;8.50;;;18.80;99.90;;;;;;5095079;28;20033;-77
2023/07/28 04:52:54;;;;;;;19.67;8.75;;;18.80;99.90;;;;;;5095861;28;20028;-77
2023/07/28 04:55:20;;;;;;;22.27;8.73;;;18.80;99.90;;;;;;5094952;28;20059;-77
2023/07/28 04:57:46;;;;;;;20.80;9.30;;;18.80;99.90;;;;;;5095764;28;20029;-78
2023/07/28 05:00:12;;;;;;;21.85;9.73;;;18.80;99.90;;;;;;5078081;28;20024;-77
2023/07/28 05:02:38;;;;;;;23.38;10.30;;;18.80;99.90;;;;;;5095825;28;20017;-77
2023/07/28 05:05:04;;;;;;;22.40;10.27;;;18.90;99.90;;;;;;5094570;28;20036;-78
2023/07/28 05:07:29;;;;;;;17.65;8.65;;;18.90;99.90;;;;;;5094700;28;20041;-78
2023/07/28 05:09:55;;;;;;;24.63;9.70;;;18.90;99.90;;;;;;5095562;28;20028;-77
2023/07/28 05:12:20;;;;;;;28.15;10.13;;;19.00;99.90;;;;;;5095469;28;20028;-77
2023/07/28 05:14:46;;;;;;;24.70;9.63;;;19.00;99.90;;;;;;5094410;28;20032;-77
2023/07/28 05:17:12;;;;;;;21.25;9.68;;;19.00;99.90;;;;;;5095324;28;20037;-77
2023/07/28 05:19:38;;;;;;;24.10;9.70;;;19.00;99.90;;;;;;5095356;28;20017;-77
2023/07/28 05:22:03;;;;;;;24.17;9.32;;;19.00;99.90;;;;;;5095250;28;20472;-76
2023/07/28 05:24:29;;;;;;;24.23;9.65;;;19.00;99.90;;;;;;5077482;28;20021;-77
2023/07/28 05:26:55;;;;;;;21.35;9.55;;;19.00;99.90;;;;;;5094304;28;20045;-76
2023/07/28 05:29:20;;;;;;;24.08;8.90;;;19.00;99.90;;;;;;5094025;28;20035;-77
2023/07/28 05:31:46;;;;;;;24.85;9.43;;;19.00;99.90;;;;;;5095128;28;20031;-77
2023/07/28 05:34:15;;;;;;;22.50;9.20;;;19.00;99.90;;;;;;5095010;28;20410;-77
2023/07/28 05:36:40;;;;;;;24.63;9.93;;;19.00;99.90;;;;;;5094036;28;20028;-77
2023/07/28 05:39:06;;;;;;;25.40;10.23;;;19.00;99.90;;;;;;5094067;28;20024;-77
2023/07/28 05:41:32;;;;;;;23.05;9.52;;;19.10;99.90;;;;;;5094072;28;20047;-76
2023/07/28 05:43:57;;;;;;;23.17;10.13;;;19.10;99.90;;;;;;5093838;28;20017;-77
2023/07/28 05:46:23;;;;;;;20.58;9.75;;;19.10;99.90;;;;;;5093685;28;20059;-77
2023/07/28 05:48:49;;;;;;;21.90;9.07;;;19.10;99.90;;;;;;5093716;28;20039;-77
2023/07/28 05:51:15;;;;;;;21.27;10.05;;;19.00;99.90;;;;;;5077081;28;20025;-76
2023/07/28 05:53:41;;;;;;;22.40;10.35;;;19.00;99.90;;;;;;5077125;28;20052;-77
2023/07/28 05:56:06;;;;;;;18.77;9.18;;;19.00;99.90;;;;;;5093720;28;20043;-77
2023/07/28 05:58:33;;;;;;;20.75;8.90;;;19.00;99.90;;;;;;5076921;28;20028;-77
2023/07/28 06:00:58;;;;;;;20.30;9.27;;;19.00;99.90;;;;;;5093643;28;20044;-77
2023/07/28 06:03:26;;;;;;;21.05;9.23;;;19.10;99.90;;;;;;5093441;28;20027;-77
2023/07/28 06:05:52;;;;;;;21.92;9.27;;;19.20;99.90;;;;;;5093345;28;20108;-77
2023/07/28 06:08:17;;;;;;;23.73;10.15;;;19.20;99.90;;;;;;5076844;28;20487;-77
2023/07/28 06:10:43;;;;;;;20.70;9.77;;;19.20;99.90;;;;;;5093293;28;20040;-77
2023/07/28 06:13:09;;;;;;;24.50;9.77;;;19.20;99.90;;;;;;5093484;28;20028;-77
2023/07/28 06:15:34;;;;;;;23.20;10.48;;;19.20;99.90;;;;;;5093259;28;20021;-77
2023/07/28 06:18:02;;;;;;;21.75;9.75;;;19.20;99.90;;;;;;5059941;28;20028;-77
2023/07/28 06:20:29;;;;;;;21.60;9.52;;;19.20;99.90;;;;;;5094162;28;20044;-77
2023/07/28 06:22:54;;;;;;;20.48;9.93;;;19.20;99.90;;;;;;5093179;28;20434;-77
2023/07/28 06:25:20;;;;;;;24.98;9.90;;;19.20;99.90;;;;;;5076416;28;20025;-77
2023/07/28 06:27:46;;;;;;;25.20;10.63;;;19.20;99.90;;;;;;5093077;28;20017;-77
2023/07/28 06:30:12;;;;;;;20.88;9.32;;;19.20;99.90;;;;;;5076259;28;20103;-77
2023/07/28 06:32:38;;;;;;;21.35;9.73;;;19.20;99.90;;;;;;5093026;28;20040;-77
2023/07/28 06:35:05;;;;;;;22.83;9.95;;;19.30;99.90;;;;;;5092958;28;20028;-77
2023/07/28 06:37:30;;;;;;;22.30;9.15;;;19.30;99.90;;;;;;5092850;28;20025;-77
2023/07/28 06:39:56;;;;;;;23.23;10.18;;;19.30;99.90;;;;;;5093801;28;20028;-77
2023/07/28 06:42:23;;;;;;;22.80;9.70;;;19.20;99.90;;;;;;5093028;28;20040;-77
2023/07/28 06:44:51;;;;;;;22.75;10.43;;;19.20;99.90;;;;;;5092746;28;20047;-77
2023/07/28 06:47:17;;;;;;;20.83;10.05;;;19.30;99.90;;;;;;5076189;28;20029;-77
2023/07/28 06:49:42;;;;;;;25.90;10.63;;;19.30;99.90;;;;;;5092732;28;20031;-77
2023/07/28 06:52:08;;;;;;;23.35;10.40;;;19.30;99.90;;;;;;5076031;28;20054;-77
2023/07/28 06:54:34;;;;;;;24.40;11.20;;;19.30;99.90;;;;;;5093572;28;20037;-77
2023/07/28 06:57:00;;;;;;;27.95;12.60;;;19.30;99.90;;;;;;5093383;28;20021;-77
2023/07/28 06:59:26;;;;;;;27.73;11.48;;;19.40;99.90;;;;;;5075706;28;20051;-77
2023/07/28 07:01:51;;;;;;;35.65;14.05;;;19.40;99.90;;;;;;5093487;28;20036;-77
2023/07/28 07:04:17;;;;;;;27.58;13.43;;;19.40;99.90;;;;;;5092488;28;20029;-77
2023/07/28 07:06:43;;;;;;;27.60;12.93;;;19.40;99.90;;;;;;5075519;28;20071;-77
2023/07/28 07:09:08;;;;;;;31.63;14.15;;;19.40;99.90;;;;;;5075811;28;20063;-77
2023/07/28 07:11:35;;;;;;;33.63;14.07;;;19.50;99.90;;;;;;5075710;28;20036;-77
2023/07/28 07:14:00;;;;;;;32.40;14.20;;;19.60;99.90;;;;;;5092507;28;20029;-77
2023/07/28 07:16:26;;;;;;;40.83;16.27;;;19.60;99.90;;;;;;5075441;28;20384;-77
2023/07/28 07:18:52;;;;;;;36.78;15.80;;;19.60;99.90;;;;;;5075536;28;20017;-77
2023/07/28 07:21:18;;;;;;;41.58;16.67;;;19.60;99.90;;;;;;5092526;28;20021;-77
2023/07/28 07:23:44;;;;;;;39.20;16.17;;;19.60;99.90;;;;;;5092362;28;20032;-77
2023/07/28 07:26:09;;;;;;;39.78;15.88;;;19.60;99.90;;;;;;5058874;28;20066;-78
2023/07/28 07:28:35;;;;;;;38.15;16.70;;;19.60;99.90;;;;;;5092287;28;20040;-77
2023/07/28 07:31:01;;;;;;;39.67;16.77;;;19.70;99.90;;;;;;5092455;28;20035;-77
2023/07/28 07:33:27;;;;;;;40.70;16.23;;;19.70;99.90;;;;;;5093139;28;20025;-78
2023/07/28 07:35:53;;;;;;;44.45;17.25;;;19.70;99.90;;;;;;5093183;28;20079;-77
2023/07/28 07:38:19;;;;;;;40.70;16.55;;;19.70;99.90;;;;;;5092085;28;20035;-77
2023/07/28 07:40:48;;;;;;;42.05;17.40;;;19.80;99.90;;;;;;5092104;28;20029;-77
2023/07/28 07:43:19;;;;;;;43.20;16.20;;;19.80;99.90;;;;;;5075438;28;20017;-77
2023/07/28 07:45:46;;;;;;;37.58;14.90;;;19.80;99.90;;;;;;5093064;28;20024;-77
2023/07/28 07:48:12;;;;;;;40.28;14.43;;;19.80;99.90;;;;;;5059183;28;20021;-77
2023/07/28 07:50:38;;;;;;;37.67;14.95;;;19.80;99.90;;;;;;5093017;28;20046;-77
2023/07/28 07:53:04;;;;;;;34.58;13.95;;;19.80;99.90;;;;;;5092124;28;20056;-77
2023/07/28 07:55:31;;;;;;;37.60;14.15;;;19.90;99.90;;;;;;5092910;28;20076;-77
2023/07/28 07:57:57;;;;;;;33.17;14.05;;;19.80;99.90;;;;;;5092857;28;20029;-77
2023/07/28 08:00:23;;;;;;;32.67;14.32;;;19.80;99.90;;;;;;5091896;28;20025;-77
2023/07/28 08:02:49;;;;;;;34.92;14.48;;;19.80;99.90;;;;;;5075247;28;20050;-77
2023/07/28 08:05:15;;;;;;;35.30;14.02;;;19.80;99.90;;;;;;5075080;28;20021;-77
2023/07/28 08:07:41;;;;;;;31.95;13.23;;;19.90;99.90;;;;;;5075223;28;20059;-77
2023/07/28 08:10:07;;;;;;;34.92;14.05;;;19.90;99.90;;;;;;5093351;28;20079;-77
2023/07/28 08:12:33;;;;;;;31.42;13.02;;;19.90;99.90;;;;;;5095694;28;20025;-77
2023/07/28 08:14:59;;;;;;;27.70;11.85;;;19.90;99.90;;;;;;5096610;28;20430;-77
2023/07/28 08:17:24;;;;;;;30.98;12.60;;;19.90;99.90;;;;;;5095449;28;20049;-77
2023/07/28 08:19:50;;;;;;;28.75;12.82;;;19.90;99.90;;;;;;5078932;28;20032;-77
2023/07/28 08:22:15;;;;;;;26.65;11.68;;;20.00;99.90;;;;;;5095502;28;20111;-77
2023/07/28 08:24:41;;;;;;;24.23;10.68;;;20.00;99.90;;;;;;5096384;28;20024;-77
2023/07/28 08:27:07;;;;;;;22.92;10.88;;;20.10;99.90;;;;;;5078768;28;20515;-77
2023/07/28 08:29:32;;;;;;;23.95;10.60;;;20.00;99.90;;;;;;5095431;28;20041;-77
2023/07/28 08:31:58;;;;;;;24.75;10.60;;;20.10;99.90;;;;;;5095380;28;20092;-77
2023/07/28 08:34:24;;;;;;;24.67;11.23;;;20.10;99.90;;;;;;5095246;28;20036;-77
2023/07/28 08:36:49;;;;;;;25.25;10.68;;;20.10;99.90;;;;;;5096093;28;20041;-77
2023/07/28 08:39:17;;;;;;;20.02;9.35;;;20.10;99.90;;;;;;5095399;28;20035;-77
2023/07/28 08:41:42;;;;;;;22.63;10.18;;;20.10;99.90;;;;;;5095257;28;20066;-77
2023/07/28 08:44:08;;;;;;;27.58;10.82;;;20.10;99.90;;;;;;5095082;28;20028;-77
2023/07/28 08:46:35;;;;;;;23.00;10.45;;;20.10;99.90;;;;;;5095051;28;20032;-77
2023/07/28 08:49:01;;;;;;;23.95;10.38;;;20.10;99.90;;;;;;5078474;28;20025;-77
2023/07/28 08:51:27;;;;;;;23.88;10.00;;;20.10;99.90;;;;;;5095036;28;20092;-77
2023/07/28 08:53:53;;;;;;;20.38;9.32;;;20.20;99.90;;;;;;5078263;28;20036;-77
2023/07/28 08:56:20;;;;;;;20.10;9.50;;;20.10;99.90;;;;;;5078028;28;20105;-77
2023/07/28 08:58:46;;;;;;;18.88;9.32;;;20.20;99.90;;;;;;5094764;28;20044;-77
2023/07/28 09:01:12;;;;;;;19.92;9.15;;;20.20;99.90;;;;;;5095740;28;20028;-77
2023/07/28 09:03:43;;;;;;;24.83;10.10;;;20.20;99.90;;;;;;5094675;28;20047;-77
2023/07/28 09:06:08;;;;;;;21.55;9.52;;;20.30;99.90;;;;;;5094482;28;20055;-77
2023/07/28 09:08:36;;;;;;;18.48;9.35;;;20.30;99.90;;;;;;5077825;28;20052;-77
2023/07/28 09:11:04;;;;;;;17.20;8.85;;;20.30;99.90;;;;;;5095582;28;20028;-77
2023/07/28 09:13:37;;;;;;;19.27;9.10;;;20.30;99.90;;;;;;5094459;28;20033;-77
2023/07/28 09:16:03;;;;;;;22.13;9.98;;;20.30;99.90;;;;;;5095422;28;20024;-77
2023/07/28 09:18:29;;;;;;;21.65;9.77;;;20.30;99.90;;;;;;5095431;28;20023;-77
2023/07/28 09:20:56;;;;;;;23.55;10.85;;;20.40;99.90;;;;;;5095127;28;20040;-77
2023/07/28 09:23:30;;;;;;;18.33;9.25;;;20.40;99.80;;;;;;5094328;28;20056;-77
2023/07/28 09:26:03;;;;;;;18.80;9.27;;;20.50;99.40;;;;;;5094341;28;20028;-77
2023/07/28 09:28:39;;;;;;;20.02;9.88;;;20.50;99.60;;;;;;5094392;28;20056;-77
2023/07/28 09:31:05;;;;;;;20.20;9.90;;;20.50;99.30;;;;;;5077645;28;20088;-77
2023/07/28 09:33:32;;;;;;;17.17;9.13;;;20.50;99.10;;;;;;5077280;28;20021;-77
2023/07/28 09:36:11;;;;;;;20.17;9.57;;;20.50;98.90;;;;;;5095027;28;20048;-77
2023/07/28 09:38:40;;;;;;;19.77;9.77;;;20.50;98.90;;;;;;5094219;28;20024;-77
2023/07/28 09:41:09;;;;;;;20.13;9.68;;;20.50;99.00;;;;;;5093920;28;20017;-77
2023/07/28 09:43:35;;;;;;;21.60;10.57;;;20.40;99.10;;;;;;5093971;28;20025;-76
2023/07/28 09:46:06;;;;;;;22.30;10.77;;;20.40;99.10;;;;;;5094910;28;20020;-77
2023/07/28 09:48:33;;;;;;;21.90;10.25;;;20.40;99.10;;;;;;5093887;28;20024;-76
2023/07/28 09:51:04;;;;;;;19.70;10.60;;;20.50;99.20;;;;;;5094742;28;20021;-77
2023/07/28 09:53:34;;;;;;;21.50;11.55;;;20.60;99.30;;;;;;5093786;28;20021;-77
2023/07/28 09:56:02;;;;;;;22.65;11.55;;;20.60;99.20;;;;;;5094757;28;20021;-77
2023/07/28 09:58:35;;;;;;;22.92;12.20;;;20.60;99.00;;;;;;5093700;28;20021;-77
2023/07/28 10:01:02;;;;;;;20.40;10.77;;;20.70;99.40;;;;;;5094643;28;20464;-77
2023/07/28 10:03:29;;;;;;;21.25;10.55;;;20.80;99.30;;;;;;5093769;28;20066;-77
2023/07/28 10:05:55;;;;;;;21.38;10.85;;;20.90;99.00;;;;;;5093243;28;20041;-77
2023/07/28 10:08:21;;;;;;;20.52;10.20;;;20.90;98.90;;;;;;5093571;28;20035;-77
2023/07/28 10:10:47;;;;;;;20.60;11.25;;;21.00;98.80;;;;;;5076673;28;20108;-78
2023/07/28 10:13:21;;;;;;;21.13;11.90;;;21.10;98.60;;;;;;5093370;28;20055;-77
2023/07/28 10:15:47;;;;;;;20.13;11.32;;;21.20;98.40;;;;;;5094382;28;20022;-77
2023/07/28 10:18:13;;;;;;;20.50;11.15;;;21.20;98.00;;;;;;5093408;28;20110;-77
2023/07/28 10:20:42;;;;;;;20.27;11.60;;;21.20;97.40;;;;;;5094191;28;20064;-77
2023/07/28 10:23:13;;;;;;;19.00;11.63;;;21.20;97.40;;;;;;5093155;28;20088;-77
2023/07/28 10:25:40;;;;;;;22.57;11.57;;;21.30;97.10;;;;;;5093095;28;20029;-77
2023/07/28 10:28:25;;;;;;;19.45;11.07;;;21.30;97.60;;;;;;5093012;28;20051;-77
2023/07/28 10:30:55;;;;;;;19.60;9.93;;;21.30;97.40;;;;;;5094207;28;20050;-77
2023/07/28 10:33:33;;;;;;;19.63;11.15;;;21.40;97.40;;;;;;5093328;28;20028;-77
2023/07/28 10:36:21;;;;;;;17.33;10.43;;;21.50;97.20;;;;;;5092858;28;20069;-77
2023/07/28 10:39:12;;;;;;;19.52;11.23;;;21.50;96.60;;;;;;5084306;28;20029;-77
2023/07/28 10:41:38;;;;;;;19.48;10.95;;;21.60;96.80;;;;;;5093918;28;20076;-77
2023/07/28 10:44:04;;;;;;;16.90;10.60;;;21.70;96.90;;;;;;5092932;28;20470;-77
2023/07/28 10:46:30;;;;;;;20.20;11.40;;;21.70;96.60;;;;;;5092824;28;20082;-77
2023/07/28 10:48:56;;;;;;;16.98;9.88;;;21.60;96.00;;;;;;5092767;28;20020;-77
2023/07/28 10:51:31;;;;;;;19.02;10.43;;;21.80;96.40;;;;;;5075941;28;20029;-77
2023/07/28 10:53:57;;;;;;;20.45;10.90;;;21.90;96.00;;;;;;5092628;28;20027;-78
2023/07/28 10:56:23;;;;;;;15.40;9.13;;;22.00;96.00;;;;;;5093572;28;20043;-77
2023/07/28 10:59:15;;;;;;;17.55;9.38;;;22.10;96.00;;;;;;5075869;28;20016;-78
2023/07/28 11:01:42;;;;;;;17.35;10.00;;;22.20;95.80;;;;;;5088993;28;20033;-78
2023/07/28 11:04:12;;;;;;;18.55;10.45;;;22.20;95.70;;;;;;5075824;28;20080;-78
2023/07/28 11:06:43;;;;;;;16.75;9.43;;;22.20;95.30;;;;;;5093252;28;20048;-77
2023/07/28 11:09:10;;;;;;;15.90;8.57;;;22.20;95.10;;;;;;5075935;28;20459;-77
2023/07/28 11:11:37;;;;;;;17.27;10.10;;;22.30;95.10;;;;;;5093396;28;20084;-77
2023/07/28 11:14:05;;;;;;;17.65;10.27;;;22.30;94.90;;;;;;5092351;28;20028;-77
2023/07/28 11:16:36;;;;;;;17.63;10.65;;;22.30;94.90;;;;;;5092359;28;20036;-77
2023/07/28 11:19:06;;;;;;;14.60;9.30;;;22.40;94.80;;;;;;5093426;28;20576;-77
2023/07/28 11:21:39;;;;;;;12.85;8.57;;;22.40;94.80;;;;;;5093391;28;20099;-78
2023/07/28 11:24:06;;;;;;;13.32;8.70;;;22.40;94.70;;;;;;5093343;28;20021;-77
2023/07/28 11:26:35;;;;;;;13.10;8.07;;;22.50;94.80;;;;;;5092216;28;20116;-77
2023/07/28 11:29:00;;;;;;;12.65;8.05;;;22.50;94.60;;;;;;5092232;28;20020;-77
2023/07/28 11:31:26;;;;;;;12.90;8.25;;;22.50;94.30;;;;;;5092284;28;20059;-77
2023/07/28 11:33:55;;;;;;;12.68;8.18;;;22.50;94.30;;;;;;5092247;28;20092;-77
2023/07/28 11:36:25;;;;;;;14.23;7.90;;;22.50;94.40;;;;;;5093080;28;20035;-77
2023/07/28 11:38:52;;;;;;;13.73;7.95;;;22.50;94.40;;;;;;5092140;28;20032;-77
2023/07/28 11:41:19;;;;;;;15.15;8.10;;;22.60;94.40;;;;;;5075535;28;20017;-77
2023/07/28 11:43:48;;;;;;;13.10;8.68;;;22.60;94.50;;;;;;5093927;28;20021;-77
2023/07/28 11:46:40;;;;;;;11.05;7.80;;;22.70;94.00;;;;;;5079839;28;20020;-78
2023/07/28 11:49:11;;;;;;;11.98;7.63;;;22.80;93.80;;;;;;5097155;28;20050;-78
2023/07/28 11:51:48;;;;;;;9.50;5.88;;;22.90;93.90;;;;;;5097081;28;20029;-77
2023/07/28 11:54:15;;;;;;;9.55;6.13;;;23.00;93.30;;;;;;5097138;28;20028;-77
2023/07/28 11:56:45;;;;;;;10.43;6.40;;;22.90;92.60;;;;;;5095842;28;20037;-77
2023/07/28 11:59:14;;;;;;;8.57;5.75;;;22.90;93.30;;;;;;5095980;28;20020;-78
2023/07/28 12:01:55;;;;;;;9.80;6.38;;;23.00;93.70;;;;;;5095956;28;20016;-78
2023/07/28 12:04:30;;;;;;;5.97;4.50;;;23.10;93.50;;;;;;5095947;28;20051;-77
2023/07/28 12:07:19;;;;;;;9.43;6.07;;;23.30;92.70;;;;;;5095571;28;20044;-78
2023/07/28 12:09:48;;;;;;;10.20;6.13;;;23.40;92.20;;;;;;5095951;28;20033;-77
2023/07/28 12:12:16;;;;;;;6.75;5.07;;;23.30;92.10;;;;;;5095669;28;20025;-77
2023/07/28 12:14:42;;;;;;;7.25;4.53;;;23.30;91.70;;;;;;5095609;28;20040;-77
2023/07/28 12:17:28;;;;;;;4.93;3.40;;;23.40;92.10;;;;;;5095468;28;20487;-77
2023/07/28 12:20:13;;;;;;;4.53;3.08;;;23.60;91.20;;;;;;5096542;28;20027;-77
2023/07/28 12:22:41;;;;;;;5.20;3.35;;;23.60;88.30;;;;;;5096646;28;20016;-78
2023/07/28 12:25:07;;;;;;;5.32;3.90;;;23.70;90.70;;;;;;5095381;28;20025;-77
2023/07/28 12:27:33;;;;;;;4.22;3.22;;;23.90;91.60;;;;;;5096360;28;20020;-78
2023/07/28 12:29:59;;;;;;;4.97;3.08;;;24.00;90.60;;;;;;5095409;28;20063;-77
2023/07/28 12:32:24;;;;;;;5.72;3.15;;;24.10;90.00;;;;;;5095244;28;20032;-78
2023/07/28 12:34:50;;;;;;;4.22;2.92;;;24.00;90.20;;;;;;5095309;28;20036;-77
2023/07/28 12:37:17;;;;;;;3.70;2.85;;;23.90;89.80;;;;;;5096142;28;20024;-77